Time;durP1;ratioP1;P1;durP2;ratioP2;P2;SDS_P1;SDS_P2;PMS_P1;PMS_P2;Temp;Humidity;BMP_temperature;BMP_pressure;BME280_temperature;BME280_humidity;BME280_pressure;Samples;Min_cycle;Max_cycle;Signal;HPM_P1;HPM_P2
2022/02/25 06:26:38;;;;;;;;;;;;;;;;;;6266135;22;19986;-77
2022/02/25 06:29:05;;;;;;;;;;;;;;;;;;6247197;23;19938;-77
2022/02/25 06:31:31;;;;;;;;;;;;;;;;;;6207692;23;19918;-77
2022/02/25 06:34:07;;;;;;;;;;;;;;;;;;6214066;23;19896;-77
2022/02/25 06:36:34;;;;;;;;;;;;;;;;;;6239646;23;19914;-78
2022/02/25 06:39:00;;;;;;;;;;;;;;;;;;6213804;23;19935;-78
2022/02/25 06:41:26;;;;;;;;;;;;;;;;;;6212574;23;19911;-77
2022/02/25 06:43:56;;;;;;;;;;;;;;;;;;6212647;23;20213;-78
2022/02/25 06:46:40;;;;;;;;;;;;;;;;;;6153347;23;19900;-79
2022/02/25 06:51:38;;;;;;;;;;;;;;;;;;6266340;22;19933;-79
2022/02/25 06:56:50;;;;;;;;;;;;;;;;;;6177701;23;19892;-78
2022/02/25 07:02:22;;;;;;;;;;;;;;;;;;6179377;23;19908;-78
2022/02/25 07:05:09;;;;;;;;;;;;;;;;;;6123341;23;19897;-78
2022/02/25 07:07:37;;;;;;;;;;;;;;;;;;6095392;23;19948;-78
2022/02/25 07:10:06;;;;;;;;;;;;;;;;;;6120723;23;19921;-78
2022/02/25 07:12:42;;;;;;;;;;;;;;;;;;6073294;23;20318;-78
2022/02/25 07:15:16;;;;;;;;;;;128.30;2227.20;;;;;;6249652;22;19918;-77
2022/02/25 07:18:10;;;;;;;;;;;128.30;2252.80;;;;;;6245019;22;19935;-80
2022/02/25 07:21:00;;;;;;;;;;;128.50;2176.00;;;;;;6179860;23;19891;-78
2022/02/25 07:47:35;;;;;;;;;;;;;;;;;;6269060;22;19977;-78
2022/02/25 07:54:22;;;;;;;;;;;179.40;2022.40;;;;;;6241613;23;19918;-82
2022/02/25 08:00:24;;;;;;;;;;;179.70;2048.00;;;;;;6095067;23;19935;-79
2022/02/25 08:06:25;;;;;;;;;;;180.00;1920.00;;;;;;6064443;23;19957;-79
2022/02/25 08:18:34;;;;;;;;;;;205.20;1894.40;;;;;;6270586;22;19907;-80
2022/02/25 08:40:15;;;;;;;;;;;256.80;1587.20;;;;;;6242005;22;19915;-79
2022/02/25 08:42:56;;;;;;;;;;;281.60;1561.60;;;;;;6210707;23;19916;-78
2022/02/25 08:45:27;;;;;;;;;;;282.10;1536.00;;;;;;6209834;23;19911;-78
2022/02/25 08:47:55;;;;;;;;;;;307.20;1561.60;;;;;;6168527;23;20299;-83
2022/02/25 08:50:21;;;;;;;;;;;308.00;1536.00;;;;;;6190588;23;20241;-83
2022/02/25 08:52:49;;;;;;;;;;;333.40;1459.20;;;;;;6187878;23;19896;-85
2022/02/25 08:55:15;;;;;;;;;;;358.80;1356.80;;;;;;6161952;23;19896;-87
2022/02/25 08:57:42;;;;;;;;;;;358.90;1356.80;;;;;;6161061;23;19950;-90
2022/02/25 09:00:09;;;;;;;;;;;359.20;1280.00;;;;;;6186772;23;19935;-85
2022/02/25 09:02:35;;;;;;;;;;;;;;;;;;6161531;23;20226;-82
2022/02/25 09:05:02;;;;;;;;;;;;;;;;;;6161775;23;20341;-84
2022/02/25 09:07:28;;;;;;;;;;;409.60;1254.40;;;;;;6186787;23;20265;-80
2022/02/25 09:09:56;;;;;;;;;;;;;;;;;;6186493;23;19896;-83
2022/02/25 09:12:22;;;;;;;;;;;435.20;1203.20;;;;;;6161969;23;20330;-80
2022/02/25 09:14:48;;;;;;;;;;;460.80;1177.60;;;;;;6218115;23;20352;-79
2022/02/25 09:17:14;;;;;;;;;;;461.50;1152.00;;;;;;6218809;23;19896;-86
2022/02/25 09:19:40;;;;;;;;;;;461.40;1100.80;;;;;;6218739;23;19923;-83
2022/02/25 09:22:06;;;;;;;;;;;461.50;1049.60;;;;;;6218386;23;19911;-84
2022/02/25 09:24:40;;;;;;;;;;;486.40;1049.60;;;;;;6218789;23;19896;-79
2022/02/25 09:27:11;;;;;;;;;;;486.70;998.40;;;;;;6191574;23;20313;-81
2022/02/25 09:29:37;;;;;;;;;;;461.70;998.40;;;;;;6216912;23;20190;-80
2022/02/25 09:32:05;;;;;;;;;;;512.00;1228.80;;;;;;6218793;23;19903;-88
2022/02/25 09:34:31;;;;;;;;;;;512.20;921.60;;;;;;6218580;23;20472;-83
2022/02/25 09:36:57;;;;;;;;;;;487.20;947.20;;;;;;6221227;23;19902;-83
2022/02/25 09:39:23;;;;;;;;;;;512.00;947.20;;;;;;6222235;23;20214;-81
2022/02/25 09:41:49;;;;;;;;;;;487.20;947.20;;;;;;6222016;23;20198;-78
2022/02/25 09:44:19;;;;;;;;;;;512.30;921.60;;;;;;6248815;23;19923;-83
2022/02/25 09:46:48;;;;;;;;;;;487.20;947.20;;;;;;6223174;23;19903;-78
2022/02/25 09:49:22;;;;;;;;;;;512.60;921.60;;;;;;6222506;23;19895;-86
2022/02/25 09:51:56;;;;;;;;;;;512.90;921.60;;;;;;6249086;23;20213;-88
2022/02/25 09:54:24;;;;;;;;;;;512.60;921.60;;;;;;6249002;23;20301;-89
2022/02/25 09:56:54;;;;;;;;;;;537.70;896.00;;;;;;6222439;23;20380;-88
2022/02/25 09:59:25;;;;;;;;;;;538.10;921.60;;;;;;6249446;23;19905;-79
2022/02/25 10:02:02;;;;;;;;;;;563.20;896.00;;;;;;6248356;23;20319;-86
2022/02/25 10:04:34;;;;;;;;;;;564.00;870.40;;;;;;6248895;23;19902;-82
2022/02/25 10:07:01;;;;;;;;;;;563.60;870.40;;;;;;6222042;23;20216;-85
2022/02/25 10:09:34;;;;;;;;;;;564.10;870.40;;;;;;6249055;23;19895;-81
2022/02/25 10:12:14;;;;;;;;;;;589.00;870.40;;;;;;6222629;23;20283;-84
2022/02/25 10:14:49;;;;;;;;;;;589.00;844.80;;;;;;6221955;23;20216;-84
2022/02/25 10:17:23;;;;;;;;;;;589.20;844.80;;;;;;6222409;23;19939;-82
2022/02/25 10:19:56;;;;;;;;;;;588.90;844.80;;;;;;6221939;23;20190;-88
2022/02/25 10:22:30;;;;;;;;;;;589.70;819.20;;;;;;6248816;23;20278;-84
2022/02/25 10:24:59;;;;;;;;;;;614.60;768.00;;;;;;6222132;23;20186;-85
2022/02/25 10:27:29;;;;;;;;;;;614.90;768.00;;;;;;6248979;23;20324;-83
2022/02/25 10:29:57;;;;;;;;;;;614.50;793.60;;;;;;6249268;23;19915;-83
2022/02/25 10:32:50;;;;;;;;;;;614.80;768.00;;;;;;6221563;23;19904;-85
2022/02/25 10:35:24;;;;;;;;;;;614.60;768.00;;;;;;6231316;23;20256;-81
2022/02/25 10:37:54;;;;;;;;;;;614.90;768.00;;;;;;6221430;23;20305;-88
2022/02/25 10:40:21;;;;;;;;;;;589.50;793.60;;;;;;6248711;23;20209;-85
2022/02/25 10:45:57;;;;;;;;;;;563.80;896.00;;;;;;6248654;23;20316;-86
2022/02/25 10:48:27;;;;;;;;;;;563.40;870.40;;;;;;6248458;23;20297;-85
2022/02/25 10:50:55;;;;;;;;;;;538.30;870.40;;;;;;6221703;23;20275;-88
2022/02/25 10:53:33;;;;;;;;;;;538.50;870.40;;;;;;6221815;23;20261;-86
2022/02/25 10:56:10;;;;;;;;;;;563.30;896.00;;;;;;6222802;23;20178;-84
2022/02/25 10:58:36;;;;;;;;;;;;;;;;;;6221365;23;20260;-84
2022/02/25 11:01:04;;;;;;;;;;;538.10;896.00;;;;;;6221782;23;20316;-84
2022/02/25 11:03:36;;;;;;;;;;;537.90;896.00;;;;;;6221765;23;20280;-81
2022/02/25 11:06:10;;;;;;;;;;;563.30;921.60;;;;;;6220266;23;19939;-87
2022/02/25 11:08:36;;;;;;;;;;;;;;;;;;6221689;23;20290;-84
2022/02/25 11:11:03;;;;;;;;;;;512.10;947.20;;;;;;6221487;23;20193;-90
2022/02/25 11:13:33;;;;;;;;;;;486.80;998.40;;;;;;6221568;23;19896;-89
2022/02/25 11:15:59;;;;;;;;;;;486.40;1049.60;;;;;;6221546;23;20292;-87
2022/02/25 11:18:26;;;;;;;;;;;461.30;1075.20;;;;;;6221292;23;20220;-83
2022/02/25 11:20:53;;;;;;;;;;;461.00;1100.80;;;;;;6221201;23;20330;-82
2022/02/25 11:23:20;;;;;;;;;;;460.90;1100.80;;;;;;6221178;23;20213;-89
2022/02/25 11:25:47;;;;;;;;;;;435.60;1126.40;;;;;;6247891;23;20301;-85
2022/02/25 11:28:13;;;;;;;;;;;435.50;1126.40;;;;;;6247866;23;19900;-86
2022/02/25 11:31:06;;;;;;;;;;;435.50;1100.80;;;;;;6248009;23;19979;-87
2022/02/25 11:33:33;;;;;;;;;;;435.40;1126.40;;;;;;6241642;23;20220;-87
2022/02/25 11:35:59;;;;;;;;;;;;;;;;;;6220948;23;20225;-88
2022/02/25 11:38:33;;;;;;;;;;;435.30;1152.00;;;;;;6220712;23;20220;-93
2022/02/25 11:41:00;;;;;;;;;;;410.50;1152.00;;;;;;6221063;23;20266;-91
2022/02/25 11:43:26;;;;;;;;;;;;;;;;;;6221432;23;20217;-80
2022/02/25 11:45:53;;;;;;;;;;;410.40;1177.60;;;;;;6221102;23;20260;-89
2022/02/25 11:48:24;;;;;;;;;;;410.10;1177.60;;;;;;6220766;23;20259;-88
2022/02/25 11:50:51;;;;;;;;;;;410.10;1203.20;;;;;;6220895;23;20253;-86
2022/02/25 11:53:19;;;;;;;;;;;409.80;1203.20;;;;;;6220984;23;20208;-85
2022/02/25 11:55:52;;;;;;;;;;;;;;;;;;6247992;23;20220;-95
2022/02/25 11:58:40;;;;;;;;;;;409.70;1484.80;;;;;;6220034;23;20246;-86
2022/02/25 12:01:11;;;;;;;;;;;409.60;1254.40;;;;;;6220999;23;20212;-89
2022/02/25 12:03:37;;;;;;;;;;;;;;;;;;6220973;23;20213;-90
2022/02/25 12:06:04;;;;;;;;;;;;;;;;;;6220947;23;20208;-88
2022/02/25 12:08:36;;;;;;;;;;;;;;;;;;6220937;23;19895;-84
2022/02/25 12:11:09;;;;;;;;;;;;;;;;;;6247878;23;19950;-89
2022/02/25 12:13:35;;;;;;;;;;;;;;;;;;6221112;23;19966;-89
2022/02/25 12:16:01;;;;;;;;;;;;;;;;;;6248087;23;20244;-89
2022/02/25 12:18:36;;;;;;;;;;;460.90;1356.80;;;;;;6221266;23;20305;-85
2022/02/25 12:21:02;;;;;;;;;;;486.70;1331.20;;;;;;6247769;23;19907;-87
2022/02/25 12:23:48;;;;;;;;;;;487.20;1049.60;;;;;;6247458;23;19896;-91
2022/02/25 12:26:14;;;;;;;;;;;512.10;1024.00;;;;;;6220756;23;20252;-87
2022/02/25 12:28:41;;;;;;;;;;;589.20;896.00;;;;;;6247195;23;19898;-83
2022/02/25 12:31:08;;;;;;;;;;;588.80;947.20;;;;;;6247751;23;19910;-81
2022/02/25 12:33:39;;;;;;;;;;;614.80;819.20;;;;;;6220782;23;20177;-83
2022/02/25 12:36:05;;;;;;;;;;;640.70;742.40;;;;;;6220405;23;20216;-88
2022/02/25 12:38:36;;;;;;;;;;;691.70;742.40;;;;;;6220290;23;19942;-83
2022/02/25 12:41:15;;;;;;;;;;;691.30;768.00;;;;;;6247237;23;19895;-82
2022/02/25 12:43:46;;;;;;;;;;;614.70;819.20;;;;;;6220560;23;20209;-83
2022/02/25 12:46:13;;;;;;;;;;;614.40;819.20;;;;;;6247352;23;20190;-87
2022/02/25 12:48:39;;;;;;;;;;;589.30;844.80;;;;;;6247269;23;20250;-83
2022/02/25 12:51:09;;;;;;;;;;;589.00;870.40;;;;;;6220532;23;19903;-84
2022/02/25 12:53:48;;;;;;;;;;;614.90;819.20;;;;;;6219600;23;19896;-88
2022/02/25 12:56:26;;;;;;;;;;;615.00;819.20;;;;;;6220615;23;20207;-87
2022/02/25 12:58:53;;;;;;;;;;;614.80;793.60;;;;;;6220736;23;20194;-88
2022/02/25 13:01:20;;;;;;;;;;;564.00;870.40;;;;;;6221076;23;19895;-90
2022/02/25 13:03:56;;;;;;;;;;;589.30;870.40;;;;;;6221219;23;20263;-91
2022/02/25 13:06:26;;;;;;;;;;;589.30;844.80;;;;;;6221502;23;20280;-84
2022/02/25 13:08:53;;;;;;;;;;;614.90;793.60;;;;;;6248000;23;20209;-91
2022/02/25 13:11:19;;;;;;;;;;;615.30;768.00;;;;;;6221085;23;20202;-88
2022/02/25 13:13:45;;;;;;;;;;;615.20;793.60;;;;;;6220883;23;20213;-82
2022/02/25 13:16:11;;;;;;;;;;;640.90;742.40;;;;;;6220708;23;19899;-89
2022/02/25 13:18:37;;;;;;;;;;;640.00;768.00;;;;;;6220660;23;19895;-82
2022/02/25 13:21:04;;;;;;;;;;;640.90;716.80;;;;;;6247474;23;19895;-77
2022/02/25 13:23:34;;;;;;;;;;;691.80;716.80;;;;;;6247830;23;20256;-88
2022/02/25 13:26:01;;;;;;;;;;;742.60;691.20;;;;;;6220524;23;20194;-82
2022/02/25 13:28:27;;;;;;;;;;;768.80;640.00;;;;;;6247814;23;20312;-89
2022/02/25 13:30:53;;;;;;;;;;;845.10;614.40;;;;;;6220439;23;20190;-87
2022/02/25 13:33:20;;;;;;;;;;;819.90;588.80;;;;;;6247711;23;20213;-80
2022/02/25 13:35:46;;;;;;;;;;;870.40;588.80;;;;;;6221025;23;20221;-85
2022/02/25 13:38:13;;;;;;;;;;;870.40;588.80;;;;;;6206388;23;19912;-81
2022/02/25 13:40:49;;;;;;;;;;;871.20;537.60;;;;;;6219014;23;20297;-79
2022/02/25 13:43:19;;;;;;;;;;;896.40;537.60;;;;;;6192184;23;20256;-81
2022/02/25 13:45:46;;;;;;;;;;;921.60;537.60;;;;;;6192115;23;20245;-80
2022/02/25 13:53:53;;;;;;;;;;;896.20;537.60;;;;;;6218944;23;19954;-84
2022/02/25 13:56:25;;;;;;;;;;;896.10;512.00;;;;;;6218327;23;20209;-80
2022/02/25 13:58:58;;;;;;;;;;;921.80;512.00;;;;;;6191958;23;20237;-81
2022/02/25 14:01:24;;;;;;;;;;;896.00;537.60;;;;;;6218494;23;19903;-83
2022/02/25 14:03:50;;;;;;;;;;;896.30;512.00;;;;;;6191730;23;19896;-84
2022/02/25 14:06:27;;;;;;;;;;;896.50;512.00;;;;;;6191919;23;20221;-79
2022/02/25 14:08:54;;;;;;;;;;;871.20;512.00;;;;;;6191980;23;20242;-82
2022/02/25 14:11:36;;;;;;;;;;;871.30;512.00;;;;;;6218339;23;20281;-79
2022/02/25 14:14:03;;;;;;;;;;;896.00;512.00;;;;;;6218443;23;20332;-83
2022/02/25 14:16:29;;;;;;;;;;;896.70;486.40;;;;;;6218244;23;20328;-86
2022/02/25 14:19:13;;;;;;;;;;;921.70;512.00;;;;;;6218678;23;20269;-89
2022/02/25 14:21:40;;;;;;;;;;;871.20;512.00;;;;;;6191822;23;20202;-76
2022/02/25 14:24:21;;;;;;;;;;;896.00;512.00;;;;;;6218225;23;20308;-84
2022/02/25 14:26:47;;;;;;;;;;;870.80;537.60;;;;;;6218407;23;20301;-79
2022/02/25 14:29:18;;;;;;;;;;;845.60;537.60;;;;;;6191984;23;20276;-89
2022/02/25 14:31:45;;;;;;;;;;;717.50;640.00;;;;;;6191568;23;20224;-78
2022/02/25 14:34:14;;;;;;;;;;;640.30;716.80;;;;;;6218348;23;19978;-86
2022/02/25 14:36:41;;;;;;;;;;;589.50;793.60;;;;;;6218255;23;20262;-85
2022/02/25 14:39:07;;;;;;;;;;;563.20;921.60;;;;;;6245251;23;20228;-83
2022/02/25 14:41:33;;;;;;;;;;;537.90;870.40;;;;;;6248470;23;19896;-85
2022/02/25 14:44:09;;;;;;;;;;;512.70;870.40;;;;;;6221935;23;20221;-81
2022/02/25 14:46:35;;;;;;;;;;;487.20;921.60;;;;;;6221636;23;20280;-81
2022/02/25 14:49:01;;;;;;;;;;;486.90;947.20;;;;;;6221623;23;20208;-83
2022/02/25 14:51:27;;;;;;;;;;;461.70;972.80;;;;;;6248485;23;19910;-83
2022/02/25 14:53:53;;;;;;;;;;;461.50;972.80;;;;;;6222384;23;19896;-83
2022/02/25 14:56:19;;;;;;;;;;;461.30;998.40;;;;;;6221872;23;19918;-87
2022/02/25 14:58:49;;;;;;;;;;;436.10;1024.00;;;;;;6221633;23;20267;-87
2022/02/25 15:01:16;;;;;;;;;;;435.90;1049.60;;;;;;6248442;23;20205;-83
2022/02/25 15:03:42;;;;;;;;;;;435.40;1075.20;;;;;;6221797;23;20228;-89
2022/02/25 15:06:12;;;;;;;;;;;435.30;1100.80;;;;;;6221505;23;19974;-86
2022/02/25 15:08:38;;;;;;;;;;;410.50;1126.40;;;;;;6248696;23;20216;-88
2022/02/25 15:11:04;;;;;;;;;;;410.40;1126.40;;;;;;6248368;23;20208;-86
2022/02/25 15:13:30;;;;;;;;;;;410.10;1126.40;;;;;;6221559;23;19927;-88
2022/02/25 15:15:57;;;;;;;;;;;;;;;;;;6248207;23;19895;-84
2022/02/25 15:18:24;;;;;;;;;;;;;;;;;;6248026;23;20217;-86
2022/02/25 15:20:50;;;;;;;;;;;384.20;1126.40;;;;;;6248260;23;20209;-87
2022/02/25 15:23:16;;;;;;;;;;;384.10;1152.00;;;;;;6221103;23;19896;-84
2022/02/25 15:25:54;;;;;;;;;;;359.20;1152.00;;;;;;6248011;23;20305;-82
2022/02/25 15:28:24;;;;;;;;;;;358.90;1177.60;;;;;;6219753;23;20289;-85
2022/02/25 15:30:50;;;;;;;;;;;358.80;1203.20;;;;;;6221690;23;19895;-92
2022/02/25 15:33:18;;;;;;;;;;;358.80;1203.20;;;;;;6221327;23;20216;-91
2022/02/25 15:35:44;;;;;;;;;;;358.70;1203.20;;;;;;6221593;23;19896;-83
2022/02/25 15:38:10;;;;;;;;;;;358.40;1177.60;;;;;;6248125;23;20232;-89
2022/02/25 15:40:36;;;;;;;;;;;333.40;1203.20;;;;;;6221252;23;20214;-86
2022/02/25 15:43:02;;;;;;;;;;;333.30;1203.20;;;;;;6247846;23;20300;-86
2022/02/25 15:45:28;;;;;;;;;;;333.30;1228.80;;;;;;6221300;23;20205;-89
2022/02/25 15:47:55;;;;;;;;;;;333.20;1228.80;;;;;;6247950;23;20323;-85
2022/02/25 15:50:22;;;;;;;;;;;332.80;1203.20;;;;;;6262752;23;20250;-84
2022/02/25 15:52:51;;;;;;;;;;;308.00;1177.60;;;;;;6264431;23;20216;-78
2022/02/25 15:55:19;;;;;;;;;;;307.80;1228.80;;;;;;6215366;23;19939;-76
2022/02/25 15:57:45;;;;;;;;;;;;;;;;;;6240113;23;20225;-87
2022/02/25 16:03:15;;;;;;;;;;;307.60;1177.60;;;;;;6268245;23;19926;-75
2022/02/25 16:05:44;;;;;;;;;;;307.50;1177.60;;;;;;6268181;23;19896;-75
2022/02/25 16:08:16;;;;;;;;;;;307.60;1203.20;;;;;;6267966;23;19900;-75
2022/02/25 16:10:51;;;;;;;;;;;307.50;1203.20;;;;;;6268253;23;20248;-75
2022/02/25 16:13:22;;;;;;;;;;;307.40;1203.20;;;;;;6268655;23;19927;-76
2022/02/25 16:16:22;;;;;;;;;;;307.20;1228.80;;;;;;6267800;23;19896;-76
2022/02/25 16:24:51;;;;;;;;;;;282.30;1228.80;;;;;;6258742;22;20110;-85
2022/02/25 16:27:17;;;;;;;;;;;282.30;1254.40;;;;;;6216556;23;20212;-91
2022/02/25 16:29:43;;;;;;;;;;;282.20;1228.80;;;;;;6218134;23;19906;-84
2022/02/25 16:32:08;;;;;;;;;;;282.10;1254.40;;;;;;6218054;23;19908;-84
2022/02/25 16:34:34;;;;;;;;;;;282.10;1280.00;;;;;;6246523;23;20381;-85
2022/02/25 16:37:00;;;;;;;;;;;282.00;1280.00;;;;;;6220314;23;19982;-83
2022/02/25 16:39:26;;;;;;;;;;;282.00;1280.00;;;;;;6220253;23;19904;-86
2022/02/25 16:41:51;;;;;;;;;;;281.90;1280.00;;;;;;6247011;23;19922;-86
2022/02/25 16:44:17;;;;;;;;;;;281.80;1280.00;;;;;;6247362;23;19905;-90
2022/02/25 16:46:42;;;;;;;;;;;281.60;1305.60;;;;;;6247326;23;20369;-86
2022/02/25 16:49:08;;;;;;;;;;;256.90;1254.40;;;;;;6247081;23;19899;-88
2022/02/25 16:51:34;;;;;;;;;;;281.60;1331.20;;;;;;6246713;23;19915;-82
2022/02/25 16:54:00;;;;;;;;;;;256.80;1331.20;;;;;;6220019;23;20331;-80
2022/02/25 16:56:27;;;;;;;;;;;256.80;1305.60;;;;;;6220158;23;19899;-86
2022/02/25 16:58:53;;;;;;;;;;;256.70;1305.60;;;;;;6220414;23;19899;-87
2022/02/25 17:01:19;;;;;;;;;;;256.50;1305.60;;;;;;6246811;23;19932;-85
2022/02/25 17:03:44;;;;;;;;;;;256.50;1305.60;;;;;;6220199;23;19903;-80
2022/02/25 17:06:11;;;;;;;;;;;256.40;1280.00;;;;;;6220326;23;19948;-88
2022/02/25 17:08:36;;;;;;;;;;;256.40;1280.00;;;;;;6220090;23;19973;-83
2022/02/25 17:11:03;;;;;;;;;;;256.20;1280.00;;;;;;6247479;23;20271;-87
2022/02/25 17:13:28;;;;;;;;;;;256.30;1254.40;;;;;;6248978;23;20321;-85
2022/02/25 17:15:54;;;;;;;;;;;256.30;1254.40;;;;;;6249307;23;19899;-83
2022/02/25 17:18:20;;;;;;;;;;;256.20;1280.00;;;;;;6222334;23;20332;-85
2022/02/25 17:20:45;;;;;;;;;;;256.20;1254.40;;;;;;6222468;23;20225;-88
2022/02/25 17:23:11;;;;;;;;;;;256.20;1254.40;;;;;;6220980;23;19900;-89
2022/02/25 17:25:37;;;;;;;;;;;256.10;1254.40;;;;;;6220720;23;19923;-81
2022/02/25 17:28:03;;;;;;;;;;;256.20;1254.40;;;;;;6221153;23;19899;-81
2022/02/25 17:30:28;;;;;;;;;;;256.10;1254.40;;;;;;6247357;23;19899;-81
2022/02/25 17:32:54;;;;;;;;;;;256.00;1254.40;;;;;;6221020;23;19962;-83
2022/02/25 17:35:20;;;;;;;;;;;256.10;1254.40;;;;;;6221106;23;19974;-80
2022/02/25 17:37:45;;;;;;;;;;;256.00;1254.40;;;;;;6221283;23;19903;-83
2022/02/25 17:40:12;;;;;;;;;;;256.00;1254.40;;;;;;6221142;23;19943;-82
2022/02/25 17:42:41;;;;;;;;;;;231.30;1254.40;;;;;;6248123;23;19899;-82
2022/02/25 17:45:08;;;;;;;;;;;231.30;1254.40;;;;;;6221157;23;19899;-81
2022/02/25 17:47:35;;;;;;;;;;;231.30;1280.00;;;;;;6220935;23;19899;-85
2022/02/25 17:50:03;;;;;;;;;;;231.30;1280.00;;;;;;6220559;23;19915;-84
2022/02/25 17:52:30;;;;;;;;;;;231.10;1280.00;;;;;;6221336;23;19978;-84
2022/02/25 17:54:55;;;;;;;;;;;231.00;1280.00;;;;;;6248192;23;19906;-82
2022/02/25 17:57:21;;;;;;;;;;;230.90;1280.00;;;;;;6221227;23;19900;-86
2022/02/25 17:59:47;;;;;;;;;;;230.80;1305.60;;;;;;6247467;23;19900;-82
2022/02/25 18:02:13;;;;;;;;;;;230.70;1305.60;;;;;;6220553;23;19900;-84
2022/02/25 18:04:39;;;;;;;;;;;230.70;1331.20;;;;;;6248236;23;19899;-84
2022/02/25 18:07:05;;;;;;;;;;;230.60;1331.20;;;;;;6221368;23;19905;-83
2022/02/25 18:09:31;;;;;;;;;;;230.60;1331.20;;;;;;6221045;23;19978;-84
2022/02/25 18:11:57;;;;;;;;;;;230.50;1331.20;;;;;;6220822;23;19914;-84
2022/02/25 18:14:22;;;;;;;;;;;230.50;1356.80;;;;;;6247575;23;19907;-83
2022/02/25 18:16:48;;;;;;;;;;;230.50;1433.60;;;;;;6221100;23;19899;-84
2022/02/25 18:19:14;;;;;;;;;;;230.40;1382.40;;;;;;6248110;23;19982;-86
2022/02/25 18:21:39;;;;;;;;;;;230.40;1356.80;;;;;;6219909;23;19904;-82
2022/02/25 18:24:05;;;;;;;;;;;230.50;1382.40;;;;;;6221116;23;19975;-83
2022/02/25 18:26:33;;;;;;;;;;;230.40;1382.40;;;;;;6247966;23;19965;-85
2022/02/25 18:28:59;;;;;;;;;;;230.40;1382.40;;;;;;6221391;23;20013;-83
2022/02/25 18:31:24;;;;;;;;;;;230.50;1382.40;;;;;;6247657;23;20264;-84
2022/02/25 18:33:50;;;;;;;;;;;230.40;1382.40;;;;;;6220855;23;19907;-82
2022/02/25 18:36:16;;;;;;;;;;;230.40;1408.00;;;;;;6218616;23;20489;-80
2022/02/25 18:38:41;;;;;;;;;;;230.40;1459.20;;;;;;6247542;23;19899;-87
2022/02/25 18:41:07;;;;;;;;;;;230.60;1459.20;;;;;;6219209;23;19899;-83
2022/02/25 18:43:32;;;;;;;;;;;230.70;1408.00;;;;;;6247339;23;19903;-85
2022/02/25 18:45:59;;;;;;;;;;;230.60;1382.40;;;;;;6221047;23;19967;-86
2022/02/25 18:48:25;;;;;;;;;;;230.60;1382.40;;;;;;6248842;23;19906;-89
2022/02/25 18:50:51;;;;;;;;;;;230.50;1382.40;;;;;;6221702;23;19946;-90
2022/02/25 18:53:16;;;;;;;;;;;230.50;1356.80;;;;;;6219756;23;19908;-84
2022/02/25 18:55:42;;;;;;;;;;;230.40;1356.80;;;;;;6247470;23;19930;-82
2022/02/25 18:58:08;;;;;;;;;;;230.40;1382.40;;;;;;6246489;23;19907;-81
2022/02/25 19:00:33;;;;;;;;;;;230.40;1382.40;;;;;;6220246;23;20309;-83
2022/02/25 19:02:59;;;;;;;;;;;230.40;1382.40;;;;;;6219939;23;19899;-82
2022/02/25 19:05:25;;;;;;;;;;;205.70;1382.40;;;;;;6219963;23;19907;-82
2022/02/25 19:07:51;;;;;;;;;;;230.40;1382.40;;;;;;6220101;23;19908;-81
2022/02/25 19:10:16;;;;;;;;;;;205.70;1408.00;;;;;;6219997;23;19899;-84
2022/02/25 19:12:42;;;;;;;;;;;205.70;1382.40;;;;;;6219625;23;19914;-83
2022/02/25 19:15:09;;;;;;;;;;;205.60;1382.40;;;;;;6220209;23;19899;-82
2022/02/25 19:17:34;;;;;;;;;;;205.60;1382.40;;;;;;6220146;23;19900;-81
2022/02/25 19:20:02;;;;;;;;;;;205.60;1382.40;;;;;;6247118;23;19910;-82
2022/02/25 19:22:29;;;;;;;;;;;205.60;1382.40;;;;;;6219887;23;19900;-87
2022/02/25 19:24:54;;;;;;;;;;;205.50;1382.40;;;;;;6212973;23;19976;-81
2022/02/25 19:27:20;;;;;;;;;;;205.50;1408.00;;;;;;6216116;23;20253;-82
2022/02/25 19:29:46;;;;;;;;;;;205.50;1382.40;;;;;;6190068;23;19900;-81
2022/02/25 19:32:12;;;;;;;;;;;205.50;1408.00;;;;;;6189315;23;19908;-83
2022/02/25 19:34:38;;;;;;;;;;;205.50;1408.00;;;;;;6189873;23;19900;-86
2022/02/25 19:37:04;;;;;;;;;;;205.50;1408.00;;;;;;6189952;23;19907;-82
2022/02/25 19:39:30;;;;;;;;;;;205.50;1408.00;;;;;;6189751;23;19903;-86
2022/02/25 19:41:56;;;;;;;;;;;205.40;1408.00;;;;;;6216380;23;19947;-87
2022/02/25 19:44:22;;;;;;;;;;;205.30;1433.60;;;;;;6189520;23;19906;-84
2022/02/25 19:46:48;;;;;;;;;;;205.30;1433.60;;;;;;6189471;23;19899;-86
2022/02/25 19:49:13;;;;;;;;;;;205.30;1433.60;;;;;;6189436;23;20297;-81
2022/02/25 19:51:39;;;;;;;;;;;205.40;1433.60;;;;;;6190071;23;19907;-81
2022/02/25 19:54:05;;;;;;;;;;;205.40;1433.60;;;;;;6189408;23;19899;-87
2022/02/25 19:56:31;;;;;;;;;;;205.40;1433.60;;;;;;6189739;23;20268;-81
2022/02/25 19:58:57;;;;;;;;;;;205.30;1433.60;;;;;;6215913;23;19900;-83
2022/02/25 20:01:22;;;;;;;;;;;205.30;1433.60;;;;;;6189212;23;20050;-84
2022/02/25 20:03:48;;;;;;;;;;;205.20;1433.60;;;;;;6215706;23;20276;-80
2022/02/25 20:06:14;;;;;;;;;;;205.30;1433.60;;;;;;6216042;23;20309;-82
2022/02/25 20:08:40;;;;;;;;;;;205.30;1433.60;;;;;;6189903;23;19911;-82
2022/02/25 20:11:06;;;;;;;;;;;205.20;1433.60;;;;;;6189606;23;20297;-82
2022/02/25 20:13:32;;;;;;;;;;;205.30;1433.60;;;;;;6189231;23;19937;-86
2022/02/25 20:15:58;;;;;;;;;;;205.30;1433.60;;;;;;6187833;23;19945;-81
2022/02/25 20:18:23;;;;;;;;;;;205.30;1433.60;;;;;;6212720;23;19900;-81
2022/02/25 20:20:49;;;;;;;;;;;205.20;1459.20;;;;;;6188094;23;19927;-83
2022/02/25 20:23:16;;;;;;;;;;;205.20;1459.20;;;;;;6187833;23;19911;-81
2022/02/25 20:25:43;;;;;;;;;;;205.30;1433.60;;;;;;6204213;23;20050;-84
2022/02/25 20:28:08;;;;;;;;;;;205.30;1459.20;;;;;;6219369;23;19903;-84
2022/02/25 20:30:35;;;;;;;;;;;205.30;1484.80;;;;;;6218771;23;19900;-84
2022/02/25 20:33:01;;;;;;;;;;;205.30;1459.20;;;;;;6218318;23;19900;-85
2022/02/25 20:35:26;;;;;;;;;;;205.30;1459.20;;;;;;6244612;23;19930;-85
2022/02/25 20:37:52;;;;;;;;;;;205.30;1459.20;;;;;;6217784;23;19929;-87
2022/02/25 20:40:18;;;;;;;;;;;205.20;1459.20;;;;;;6218999;23;19899;-86
2022/02/25 20:42:44;;;;;;;;;;;205.20;1484.80;;;;;;6246246;23;19914;-86
2022/02/25 20:45:10;;;;;;;;;;;205.10;1510.40;;;;;;6218937;23;19935;-84
2022/02/25 20:47:36;;;;;;;;;;;205.10;1484.80;;;;;;6218086;23;19908;-83
2022/02/25 20:50:02;;;;;;;;;;;205.20;1484.80;;;;;;6246561;23;19899;-89
2022/02/25 20:52:30;;;;;;;;;;;205.10;1484.80;;;;;;6244708;23;19935;-84
2022/02/25 20:54:55;;;;;;;;;;;205.10;1510.40;;;;;;6218269;23;19982;-82
2022/02/25 20:57:21;;;;;;;;;;;205.20;1510.40;;;;;;6218111;23;20316;-88
2022/02/25 20:59:47;;;;;;;;;;;205.00;1510.40;;;;;;6244880;23;20022;-86
2022/02/25 21:02:13;;;;;;;;;;;204.90;1536.00;;;;;;6218747;23;19962;-86
2022/02/25 21:04:39;;;;;;;;;;;204.80;1536.00;;;;;;6219337;23;20364;-90
2022/02/25 21:07:05;;;;;;;;;;;204.90;1536.00;;;;;;6245786;23;19935;-84
2022/02/25 21:09:31;;;;;;;;;;;204.80;1536.00;;;;;;6219745;23;19962;-86
2022/02/25 21:11:57;;;;;;;;;;;204.90;1536.00;;;;;;6220017;23;20261;-87
2022/02/25 21:14:22;;;;;;;;;;;204.90;1536.00;;;;;;6219540;23;20225;-85
2022/02/25 21:16:48;;;;;;;;;;;204.90;1536.00;;;;;;6219375;23;19979;-86
2022/02/25 21:19:14;;;;;;;;;;;204.80;1561.60;;;;;;6220115;23;19906;-85
2022/02/25 21:21:40;;;;;;;;;;;204.90;1536.00;;;;;;6219790;23;19911;-87
2022/02/25 21:24:06;;;;;;;;;;;204.80;1561.60;;;;;;6219866;23;19934;-82
2022/02/25 21:26:32;;;;;;;;;;;204.90;1561.60;;;;;;6215311;23;19915;-83
2022/02/25 21:28:58;;;;;;;;;;;204.90;1561.60;;;;;;6217855;23;19899;-87
2022/02/25 21:31:24;;;;;;;;;;;204.80;1715.20;;;;;;6219111;23;19900;-87
2022/02/25 21:33:50;;;;;;;;;;;204.90;1587.20;;;;;;6218863;23;20332;-85
2022/02/25 21:36:16;;;;;;;;;;;;;;;;;;6244856;23;20316;-85
2022/02/25 21:38:42;;;;;;;;;;;;;;;;;;6218946;23;19904;-87
2022/02/25 21:41:08;;;;;;;;;;;;;;;;;;6218863;23;19986;-84
2022/02/25 21:43:34;;;;;;;;;;;;;;;;;;6245460;23;20225;-86
2022/02/25 21:46:00;;;;;;;;;;;;;;;;;;6218546;23;19923;-85
2022/02/25 21:48:26;;;;;;;;;;;;;;;;;;6213493;23;20351;-83
2022/02/25 21:50:52;;;;;;;;;;;;;;;;;;6244636;23;19922;-84
2022/02/25 21:53:18;;;;;;;;;;;;;;;;;;6217554;23;20317;-82
2022/02/25 21:55:44;;;;;;;;;;;;;;;;;;6217883;23;19934;-83
2022/02/25 21:58:10;;;;;;;;;;;;;;;;;;6219141;23;20257;-87
2022/02/25 22:00:35;;;;;;;;;;;;;;;;;;6220716;23;19935;-88
2022/02/25 22:03:01;;;;;;;;;;;;;;;;;;6220918;23;19962;-87
2022/02/25 22:05:27;;;;;;;;;;;;;;;;;;6220168;23;20320;-86
2022/02/25 22:07:53;;;;;;;;;;;;;;;;;;6220732;23;20371;-85